Time;durP1;ratioP1;P1;durP2;ratioP2;P2;SDS_P1;SDS_P2;PMS_P1;PMS_P2;Temp;Humidity;BMP_temperature;BMP_pressure;BME280_temperature;BME280_humidity;BME280_pressure;Samples;Min_cycle;Max_cycle;Signal;HPM_P1;HPM_P2
2024/04/10 00:01:55;;;;;;;1.00;0.50;;;8.70;99.90;;;;;;15305386;19;20700;-77
2024/04/10 00:06:56;;;;;;;0.50;0.30;;;8.70;99.90;;;;;;15303052;19;20624;-77
2024/04/10 00:11:56;;;;;;;0.93;0.40;;;8.70;99.90;;;;;;15309754;19;20151;-77
2024/04/10 00:16:57;;;;;;;3.10;1.17;;;8.70;99.90;;;;;;15302434;19;20177;-77
2024/04/10 00:21:57;;;;;;;0.90;0.40;;;8.70;99.90;;;;;;15304301;19;20131;-77
2024/04/10 00:26:58;;;;;;;0.80;0.30;;;8.80;99.90;;;;;;15303549;19;20163;-77
2024/04/10 00:31:59;;;;;;;2.80;0.37;;;8.70;99.90;;;;;;15319841;19;20133;-80
2024/04/10 00:36:59;;;;;;;2.07;0.50;;;8.60;99.90;;;;;;15309623;19;20154;-76
2024/04/10 00:42:00;;;;;;;0.80;0.40;;;8.60;99.90;;;;;;15302551;19;20129;-76
2024/04/10 00:47:00;;;;;;;2.30;0.60;;;8.60;99.90;;;;;;15314563;19;20192;-78
2024/04/10 00:52:01;;;;;;;3.60;0.57;;;8.50;99.90;;;;;;15312639;19;20207;-78
2024/04/10 00:57:01;;;;;;;0.83;0.47;;;8.60;99.90;;;;;;15305858;19;20166;-79
2024/04/10 01:02:04;;;;;;;0.80;0.30;;;8.40;99.90;;;;;;15311412;19;20180;-79
2024/04/10 01:07:09;;;;;;;2.17;0.50;;;8.40;99.90;;;;;;15318467;19;20167;-79
2024/04/10 01:12:09;;;;;;;0.83;0.37;;;8.30;99.90;;;;;;15318784;19;20133;-78
2024/04/10 01:17:10;;;;;;;0.73;0.30;;;8.30;99.90;;;;;;15315889;19;20153;-79
2024/04/10 01:22:10;;;;;;;3.87;1.17;;;8.20;99.90;;;;;;15319661;19;20123;-80
2024/04/10 01:27:11;;;;;;;1.30;0.40;;;8.20;99.90;;;;;;15318307;19;20556;-78
2024/04/10 01:32:11;;;;;;;0.80;0.40;;;8.20;99.90;;;;;;15311602;19;20122;-79
2024/04/10 01:37:12;;;;;;;1.17;0.50;;;8.10;99.90;;;;;;15317619;19;20174;-81
2024/04/10 01:42:12;;;;;;;0.73;0.50;;;8.10;99.90;;;;;;15310511;19;20237;-79
2024/04/10 01:47:13;;;;;;;2.40;0.50;;;7.90;99.90;;;;;;15316022;19;20597;-79
2024/04/10 01:52:13;;;;;;;1.07;0.50;;;7.90;99.90;;;;;;15309138;19;20133;-78
2024/04/10 01:57:14;;;;;;;0.90;0.40;;;7.80;99.90;;;;;;15315492;19;20151;-80
2024/04/10 02:02:14;;;;;;;0.67;0.37;;;7.80;99.90;;;;;;15308516;19;20138;-79
2024/04/10 02:07:15;;;;;;;1.17;0.50;;;7.80;99.90;;;;;;15315297;19;20163;-78
2024/04/10 02:12:15;;;;;;;1.63;1.00;;;7.70;99.90;;;;;;15306551;19;20130;-78
2024/04/10 02:17:16;;;;;;;0.97;0.40;;;7.70;99.90;;;;;;15313907;19;20134;-80
2024/04/10 02:22:16;;;;;;;0.57;0.43;;;7.70;99.90;;;;;;15325328;19;20162;-79
2024/04/10 02:27:17;;;;;;;0.63;0.37;;;7.70;99.90;;;;;;15330393;19;20161;-79
2024/04/10 02:32:17;;;;;;;2.43;1.17;;;7.60;99.90;;;;;;15313101;19;20655;-78
2024/04/10 02:37:18;;;;;;;0.70;0.33;;;7.60;99.90;;;;;;15314879;19;20138;-78
2024/04/10 02:42:19;;;;;;;1.20;0.50;;;7.60;99.90;;;;;;15304027;19;20851;-77
2024/04/10 02:47:19;;;;;;;0.40;0.30;;;7.70;99.90;;;;;;15307012;19;20158;-77
2024/04/10 02:52:20;;;;;;;1.23;0.50;;;7.60;99.90;;;;;;15303895;19;20126;-78
2024/04/10 02:57:20;;;;;;;0.90;0.40;;;7.50;99.90;;;;;;15306284;19;20210;-78
2024/04/10 03:02:22;;;;;;;0.60;0.37;;;7.40;99.90;;;;;;15298362;19;20121;-78
2024/04/10 03:07:22;;;;;;;0.90;0.43;;;7.40;99.90;;;;;;15304439;19;20134;-77
2024/04/10 03:12:23;;;;;;;1.17;0.87;;;7.30;99.90;;;;;;15299345;19;20676;-77
2024/04/10 03:17:23;;;;;;;0.73;0.37;;;7.30;99.90;;;;;;15306018;19;20182;-78
2024/04/10 03:22:24;;;;;;;1.40;0.77;;;7.30;99.90;;;;;;15299461;19;20483;-77
2024/04/10 03:27:24;;;;;;;1.83;0.40;;;7.30;99.90;;;;;;15308500;19;20144;-77
2024/04/10 03:32:27;;;;;;;0.40;0.30;;;7.20;99.90;;;;;;15298995;19;20136;-78
2024/04/10 03:37:28;;;;;;;0.90;0.40;;;7.20;99.90;;;;;;15317176;19;20130;-79
2024/04/10 03:42:35;;;;;;;0.63;0.40;;;7.20;99.90;;;;;;15322845;19;20206;-78
2024/04/10 03:47:35;;;;;;;1.63;0.43;;;7.30;99.90;;;;;;15331830;19;20154;-79
2024/04/10 03:52:36;;;;;;;1.80;0.40;;;7.30;99.90;;;;;;15322235;19;20106;-78
2024/04/10 03:57:37;;;;;;;0.87;0.40;;;7.20;99.90;;;;;;15332558;19;20624;-78
2024/04/10 04:02:37;;;;;;;0.87;0.40;;;7.20;99.90;;;;;;15318847;19;20142;-76
2024/04/10 04:07:38;;;;;;;1.00;0.47;;;7.30;99.90;;;;;;15326504;19;20130;-78
2024/04/10 04:12:38;;;;;;;3.10;1.13;;;7.30;99.90;;;;;;15324161;19;20151;-77
2024/04/10 04:17:39;;;;;;;1.20;0.60;;;7.20;99.90;;;;;;15329083;19;20131;-77
2024/04/10 04:22:39;;;;;;;1.07;0.50;;;7.20;99.90;;;;;;15312912;19;20166;-76
2024/04/10 04:27:40;;;;;;;0.60;0.50;;;7.20;99.90;;;;;;15329744;19;20541;-79
2024/04/10 04:32:40;;;;;;;8.63;0.70;;;7.30;99.90;;;;;;15325936;19;20163;-78
2024/04/10 04:37:45;;;;;;;0.90;0.40;;;7.30;99.90;;;;;;15321956;19;20640;-79
2024/04/10 04:42:47;;;;;;;1.50;0.40;;;7.30;99.90;;;;;;15325873;19;20594;-82
2024/04/10 04:47:47;;;;;;;0.30;0.30;;;7.20;99.90;;;;;;15331745;19;20141;-80
2024/04/10 04:52:48;;;;;;;5.43;0.57;;;7.10;99.90;;;;;;15342684;19;20135;-81
2024/04/10 04:57:48;;;;;;;1.43;0.60;;;7.10;99.90;;;;;;15369688;19;20129;-79
2024/04/10 05:02:49;;;;;;;1.33;0.77;;;7.00;99.90;;;;;;15341820;19;20150;-81
2024/04/10 05:07:49;;;;;;;1.30;0.63;;;7.10;99.90;;;;;;15313070;19;20126;-84
2024/04/10 05:12:51;;;;;;;1.97;0.70;;;7.00;99.90;;;;;;15310986;19;20130;-80
2024/04/10 05:17:51;;;;;;;3.77;0.60;;;7.20;99.90;;;;;;15317453;19;20182;-80
2024/04/10 05:22:52;;;;;;;1.73;0.50;;;7.20;99.90;;;;;;15362950;19;20181;-81
2024/04/10 05:27:53;;;;;;;8.23;0.50;;;7.30;99.90;;;;;;15312476;19;20130;-81
2024/04/10 05:32:53;;;;;;;0.97;0.47;;;7.40;99.90;;;;;;15313064;19;20131;-82
2024/04/10 05:37:55;;;;;;;0.97;0.50;;;7.40;99.90;;;;;;15302906;19;20150;-80
2024/04/10 05:42:56;;;;;;;1.20;0.50;;;7.50;99.90;;;;;;15308443;19;20523;-79
2024/04/10 05:47:56;;;;;;;0.97;0.40;;;7.50;99.90;;;;;;15324746;19;20123;-79
2024/04/10 05:52:57;;;;;;;2.27;1.10;;;7.50;99.90;;;;;;15348389;19;20154;-79
2024/04/10 05:57:57;;;;;;;1.33;0.83;;;7.60;99.90;;;;;;15343420;19;20134;-79
2024/04/10 06:02:58;;;;;;;1.93;0.40;;;7.50;99.90;;;;;;15313642;19;20190;-80
2024/04/10 06:07:58;;;;;;;1.00;0.50;;;7.60;99.90;;;;;;15315572;19;20145;-81
2024/04/10 06:12:59;;;;;;;0.97;0.47;;;7.70;99.90;;;;;;15315133;19;20134;-82
2024/04/10 06:18:00;;;;;;;1.67;1.03;;;7.70;99.90;;;;;;15335804;19;20142;-83
2024/04/10 06:23:00;;;;;;;1.53;0.50;;;7.70;99.90;;;;;;15337558;19;20209;-82
2024/04/10 06:28:00;;;;;;;2.03;0.93;;;7.60;99.90;;;;;;15336503;19;20250;-80
2024/04/10 06:33:01;;;;;;;0.67;0.50;;;7.50;99.90;;;;;;15307295;19;20239;-82
2024/04/10 06:38:02;;;;;;;1.57;0.73;;;7.60;99.90;;;;;;15306545;19;20123;-82
2024/04/10 06:43:02;;;;;;;2.30;0.57;;;7.50;99.90;;;;;;15312099;19;20680;-83
2024/04/10 06:48:03;;;;;;;3.67;1.27;;;7.60;99.90;;;;;;15308240;19;20142;-82
2024/04/10 06:53:08;;;;;;;1.57;1.00;;;7.70;99.90;;;;;;15307199;19;20146;-82
2024/04/10 06:58:09;;;;;;;1.83;0.73;;;7.70;99.90;;;;;;15304060;19;20153;-81
2024/04/10 07:03:09;;;;;;;2.07;1.00;;;7.90;99.90;;;;;;15301064;19;20146;-81
2024/04/10 07:08:10;;;;;;;2.50;1.27;;;8.00;99.90;;;;;;15298847;19;20601;-81
2024/04/10 07:13:11;;;;;;;2.90;1.00;;;8.20;99.90;;;;;;15297926;19;20145;-81
2024/04/10 07:18:11;;;;;;;3.00;0.77;;;8.60;99.90;;;;;;15311432;19;20171;-81
2024/04/10 07:23:12;;;;;;;1.40;0.60;;;8.20;99.90;;;;;;15311757;19;20178;-82
2024/04/10 07:28:12;;;;;;;2.00;0.80;;;8.30;99.90;;;;;;15313188;19;20687;-82
2024/04/10 07:33:13;;;;;;;2.53;0.60;;;8.50;99.90;;;;;;15323837;19;20165;-81
2024/04/10 07:38:13;;;;;;;1.60;0.70;;;8.30;99.90;;;;;;15325817;19;20727;-82
2024/04/10 07:43:14;;;;;;;2.70;1.53;;;8.20;99.90;;;;;;15323571;19;20134;-82
2024/04/10 07:48:15;;;;;;;2.07;0.70;;;8.20;99.90;;;;;;15321343;19;20704;-82
2024/04/10 07:53:16;;;;;;;4.57;0.90;;;8.50;99.90;;;;;;15324346;19;20233;-82
2024/04/10 07:58:16;;;;;;;2.77;1.03;;;8.40;99.90;;;;;;15321923;19;20133;-81
2024/04/10 08:03:17;;;;;;;2.83;1.10;;;8.50;99.90;;;;;;15315866;19;20182;-81
2024/04/10 08:08:18;;;;;;;1.47;0.77;;;8.60;99.90;;;;;;15317646;19;20130;-81
2024/04/10 08:13:18;;;;;;;4.10;1.10;;;8.80;99.90;;;;;;15316068;19;21018;-81
2024/04/10 08:18:19;;;;;;;3.93;1.00;;;9.10;99.90;;;;;;15321971;19;20174;-80
2024/04/10 08:23:20;;;;;;;2.53;1.07;;;9.40;99.90;;;;;;15345489;19;20217;-82
2024/04/10 08:28:20;;;;;;;2.17;0.97;;;9.60;99.90;;;;;;15315425;19;20138;-81
2024/04/10 08:33:27;;;;;;;1.47;0.87;;;9.40;99.90;;;;;;15317633;19;20175;-81
2024/04/10 08:38:28;;;;;;;1.37;0.90;;;9.20;99.90;;;;;;15318188;19;20134;-81
2024/04/10 08:43:34;;;;;;;16.23;1.90;;;9.30;99.90;;;;;;15309345;19;20184;-81
2024/04/10 08:48:37;;;;;;;2.13;0.80;;;9.40;99.90;;;;;;15315245;19;20127;-81
2024/04/10 08:53:43;;;;;;;3.33;1.23;;;9.60;99.90;;;;;;15312979;19;20127;-81
2024/04/10 08:58:44;;;;;;;3.97;1.30;;;9.70;99.90;;;;;;15333767;19;20147;-82
2024/04/10 09:03:44;;;;;;;2.70;1.10;;;9.90;99.90;;;;;;15312202;19;20143;-82
2024/04/10 09:08:58;;;;;;;2.87;1.10;;;10.10;99.90;;;;;;15312712;19;20214;-81
2024/04/10 09:14:19;;;;;;;2.70;1.10;;;10.10;99.90;;;;;;15314456;19;20179;-82
2024/04/10 09:19:20;;;;;;;2.90;1.33;;;10.00;99.90;;;;;;15313021;19;20805;-81
2024/04/10 09:24:27;;;;;;;2.23;0.90;;;10.10;99.90;;;;;;15307231;19;20175;-81
2024/04/10 09:29:32;;;;;;;2.03;1.30;;;10.00;99.90;;;;;;15309496;19;20135;-81
2024/04/10 09:34:33;;;;;;;5.77;1.47;;;9.80;99.90;;;;;;15306738;19;20604;-81
2024/04/10 09:39:34;;;;;;;1.83;0.77;;;10.30;99.90;;;;;;15304582;19;20592;-81
2024/04/10 09:44:39;;;;;;;3.63;1.63;;;10.30;99.90;;;;;;15313935;19;20241;-81
2024/04/10 09:49:49;;;;;;;2.20;1.60;;;10.50;99.90;;;;;;15308291;19;20891;-81
2024/04/10 09:54:50;;;;;;;3.90;1.13;;;10.60;99.90;;;;;;15314632;19;20184;-82
2024/04/10 09:59:51;;;;;;;3.13;1.63;;;10.90;99.90;;;;;;15312096;19;20142;-81
2024/04/10 10:04:51;;;;;;;4.50;1.60;;;11.10;99.90;;;;;;15313181;19;20159;-79
2024/04/10 10:10:05;;;;;;;1.47;0.63;;;11.60;99.90;;;;;;15312954;19;20168;-80
2024/04/10 10:15:09;;;;;;;1.53;0.73;;;11.60;99.90;;;;;;15320704;19;20156;-80
2024/04/10 10:20:19;;;;;;;2.20;0.67;;;10.70;99.90;;;;;;15324775;19;20127;-82
2024/04/10 10:25:20;;;;;;;3.87;0.70;;;11.20;99.90;;;;;;15337310;19;20210;-79
2024/04/10 10:30:21;;;;;;;3.63;0.80;;;11.50;99.90;;;;;;15358547;19;20139;-83
2024/04/10 10:35:21;;;;;;;1.97;0.80;;;11.90;99.90;;;;;;15328340;19;20166;-82
2024/04/10 10:40:23;;;;;;;2.77;1.23;;;11.90;99.90;;;;;;15313023;19;20141;-82
2024/04/10 10:45:24;;;;;;;2.57;1.03;;;11.90;99.90;;;;;;15310399;19;20157;-82
2024/04/10 10:50:25;;;;;;;2.57;0.80;;;11.50;99.90;;;;;;15292297;19;20891;-82
2024/04/10 10:55:25;;;;;;;5.40;0.80;;;11.60;99.90;;;;;;15297241;19;20169;-80
2024/04/10 11:00:29;;;;;;;2.07;0.73;;;12.10;99.90;;;;;;15291885;19;20122;-81
2024/04/10 11:05:30;;;;;;;1.33;0.75;;;11.80;99.90;;;;;;15297950;19;20174;-79
2024/04/10 11:10:30;;;;;;;2.08;0.80;;;12.10;99.90;;;;;;15295979;19;20207;-81
2024/04/10 11:15:46;;;;;;;5.25;0.80;;;12.50;99.90;;;;;;15303097;19;20147;-81
2024/04/10 11:20:47;;;;;;;1.45;0.80;;;12.50;99.90;;;;;;15351674;19;20134;-79
2024/04/10 11:25:48;;;;;;;1.75;1.05;;;12.50;99.90;;;;;;15323938;19;20617;-81
2024/04/10 11:30:49;;;;;;;1.25;0.70;;;13.30;99.90;;;;;;15307955;19;20160;-81
2024/04/10 11:35:50;;;;;;;2.00;0.68;;;13.70;99.90;;;;;;15300775;19;20174;-81
2024/04/10 11:40:51;;;;;;;3.45;0.90;;;13.80;99.90;;;;;;15297774;19;20136;-80
2024/04/10 11:45:51;;;;;;;2.30;0.50;;;14.40;99.90;;;;;;15304851;19;20179;-81
2024/04/10 11:50:52;;;;;;;1.38;0.52;;;14.30;98.40;;;;;;15304322;19;20130;-80
2024/04/10 11:55:53;;;;;;;1.80;0.70;;;14.50;96.80;;;;;;15301845;19;20143;-80
2024/04/10 12:00:54;;;;;;;4.65;1.02;;;14.50;97.40;;;;;;15305917;19;20130;-80
2024/04/10 12:05:54;;;;;;;2.97;1.00;;;14.90;97.00;;;;;;15322392;19;20174;-81
2024/04/10 12:10:55;;;;;;;3.00;0.70;;;14.20;98.50;;;;;;15319669;19;20126;-80
2024/04/10 12:15:55;;;;;;;1.27;0.65;;;13.70;99.90;;;;;;15323235;19;20552;-81
2024/04/10 12:20:56;;;;;;;4.38;0.65;;;13.70;99.50;;;;;;15371268;19;20119;-79
2024/04/10 12:25:58;;;;;;;2.08;0.70;;;13.60;99.60;;;;;;15371684;19;20142;-79
2024/04/10 12:31:00;;;;;;;0.88;0.50;;;14.00;98.40;;;;;;15335132;19;20134;-80
2024/04/10 12:41:20;;;;;;;1.33;0.65;;;15.00;96.60;;;;;;15319915;19;20130;-83
2024/04/10 12:46:22;;;;;;;1.88;0.90;;;15.60;96.00;;;;;;15320944;19;20166;-80
2024/04/10 12:51:23;;;;;;;3.10;0.80;;;15.70;95.50;;;;;;15317043;19;20149;-83
2024/04/10 12:56:24;;;;;;;3.22;0.95;;;15.70;94.60;;;;;;15318278;19;20180;-80
2024/04/10 13:01:24;;;;;;;2.10;0.63;;;15.60;94.30;;;;;;15322521;19;20133;-79
2024/04/10 13:06:25;;;;;;;1.60;0.88;;;15.70;93.10;;;;;;15313752;19;20170;-80
2024/04/10 13:11:25;;;;;;;2.95;0.50;;;15.70;94.10;;;;;;15312802;19;20127;-80
2024/04/10 13:16:26;;;;;;;2.08;0.50;;;16.30;93.20;;;;;;15321711;19;20220;-80
2024/04/10 13:21:26;;;;;;;1.17;0.50;;;17.00;93.40;;;;;;15316652;19;20126;-80
2024/04/10 13:26:28;;;;;;;3.70;0.80;;;17.80;92.10;;;;;;15319503;19;20204;-80
2024/04/10 13:31:28;;;;;;;1.40;0.80;;;18.50;90.30;;;;;;15317310;19;20146;-80
2024/04/10 13:36:30;;;;;;;1.88;0.90;;;18.00;90.70;;;;;;15318054;19;20142;-80
2024/04/10 13:41:31;;;;;;;1.95;0.70;;;16.70;91.00;;;;;;15312642;19;20126;-81
2024/04/10 13:46:32;;;;;;;3.10;0.82;;;16.10;91.90;;;;;;15311501;19;20214;-81
2024/04/10 13:51:34;;;;;;;3.50;0.80;;;15.90;92.30;;;;;;15311608;19;20138;-81
2024/04/10 13:56:34;;;;;;;1.48;0.77;;;15.80;92.50;;;;;;15310352;19;20166;-79
2024/04/10 14:01:36;;;;;;;3.85;0.80;;;15.40;92.60;;;;;;15304835;19;20130;-79
2024/04/10 14:06:36;;;;;;;0.98;0.60;;;15.90;92.00;;;;;;15310218;19;20177;-80
2024/04/10 14:11:37;;;;;;;4.10;0.85;;;15.90;93.40;;;;;;15319662;19;20134;-79
2024/04/10 14:16:39;;;;;;;1.55;0.70;;;15.40;94.00;;;;;;15342866;19;20166;-80
2024/04/10 14:21:40;;;;;;;1.77;0.75;;;15.20;94.40;;;;;;15361373;19;20620;-81
2024/04/10 14:26:40;;;;;;;1.23;0.80;;;15.00;94.20;;;;;;15318868;19;20176;-81
2024/04/10 14:31:41;;;;;;;3.03;0.80;;;14.90;94.20;;;;;;15319350;19;20874;-81
2024/04/10 14:36:41;;;;;;;2.10;0.77;;;14.70;94.60;;;;;;15307948;19;20170;-82
2024/04/10 14:41:42;;;;;;;2.30;0.60;;;14.50;95.10;;;;;;15311763;19;20137;-80
2024/04/10 14:46:42;;;;;;;3.83;0.85;;;14.20;95.10;;;;;;15310057;19;20654;-79
2024/04/10 14:51:43;;;;;;;2.35;1.00;;;14.10;95.20;;;;;;15059213;19;20146;-80
2024/04/10 14:56:43;;;;;;;1.73;0.57;;;14.10;95.00;;;;;;15071275;19;20228;-79
2024/04/10 15:01:44;;;;;;;1.35;1.00;;;14.20;94.50;;;;;;15293258;19;20186;-78
2024/04/10 15:06:45;;;;;;;2.67;0.60;;;14.20;94.70;;;;;;15302465;19;20163;-78
2024/04/10 15:11:45;;;;;;;2.42;0.75;;;14.40;94.60;;;;;;15309157;19;20600;-80
2024/04/10 15:16:46;;;;;;;2.53;0.70;;;14.50;93.60;;;;;;15305176;19;20142;-81
2024/04/10 15:21:46;;;;;;;2.47;0.50;;;14.80;93.50;;;;;;15306863;19;20142;-82
2024/04/10 15:26:47;;;;;;;2.13;0.70;;;15.20;93.50;;;;;;15300543;19;20231;-78
2024/04/10 15:31:47;;;;;;;1.73;0.98;;;15.60;93.50;;;;;;15295942;19;20138;-82
2024/04/10 15:36:48;;;;;;;1.40;0.55;;;15.80;92.30;;;;;;15312341;19;20174;-81
2024/04/10 15:41:50;;;;;;;7.13;0.90;;;15.60;92.30;;;;;;15318710;19;20126;-82
2024/04/10 15:46:50;;;;;;;1.83;0.50;;;15.30;92.70;;;;;;15318513;19;20767;-82
2024/04/10 15:51:51;;;;;;;1.27;0.60;;;15.10;92.50;;;;;;15319304;19;20150;-81
2024/04/10 15:56:52;;;;;;;1.55;0.70;;;15.30;92.70;;;;;;15324546;19;20712;-82
2024/04/10 16:01:53;;;;;;;1.48;0.70;;;15.90;92.90;;;;;;15325621;19;20126;-82
2024/04/10 16:06:54;;;;;;;4.07;0.65;;;16.10;91.20;;;;;;15329227;19;20673;-82
2024/04/10 16:11:54;;;;;;;0.43;0.32;;;16.10;91.20;;;;;;15310529;19;20142;-82
2024/04/10 16:16:56;;;;;;;1.70;0.60;;;15.80;91.40;;;;;;15314037;19;20174;-82
2024/04/10 16:21:57;;;;;;;1.10;0.50;;;15.90;92.00;;;;;;15313241;19;20142;-82
2024/04/10 16:26:58;;;;;;;2.92;1.88;;;16.00;92.00;;;;;;15312600;19;20215;-82
2024/04/10 16:31:58;;;;;;;1.40;0.50;;;16.70;90.20;;;;;;15309135;19;20147;-83
2024/04/10 16:36:59;;;;;;;2.10;0.70;;;17.10;89.10;;;;;;15311312;19;20169;-82
2024/04/10 16:41:59;;;;;;;1.75;0.80;;;16.90;89.10;;;;;;15310431;19;20239;-82
2024/04/10 16:47:00;;;;;;;3.35;0.88;;;16.80;87.30;;;;;;15312398;19;20237;-83
2024/04/10 16:52:01;;;;;;;1.10;0.50;;;16.90;86.70;;;;;;15310037;19;20649;-82
2024/04/10 16:57:01;;;;;;;0.73;0.32;;;16.90;85.30;;;;;;15306528;19;20177;-82
2024/04/10 17:02:02;;;;;;;1.88;0.65;;;16.90;86.70;;;;;;15303286;19;20134;-82
2024/04/10 17:07:03;;;;;;;1.58;0.60;;;17.00;86.00;;;;;;15311205;19;20648;-82
2024/04/10 17:12:04;;;;;;;1.08;0.60;;;17.00;87.00;;;;;;15308455;19;20130;-82
2024/04/10 17:17:05;;;;;;;2.58;0.68;;;16.40;89.50;;;;;;15339545;19;20169;-82
2024/04/10 17:22:06;;;;;;;2.83;0.60;;;16.20;90.00;;;;;;15317050;19;20229;-82
2024/04/10 17:27:06;;;;;;;0.95;0.40;;;16.60;88.00;;;;;;15315444;19;20689;-83
2024/04/10 17:32:07;;;;;;;1.92;0.60;;;17.00;86.30;;;;;;15310526;19;20615;-81
2024/04/10 17:37:07;;;;;;;0.68;0.40;;;17.00;86.00;;;;;;15314153;19;20169;-83
2024/04/10 17:42:08;;;;;;;0.80;0.47;;;16.60;86.80;;;;;;15310055;19;20649;-80
2024/04/10 17:47:08;;;;;;;0.57;0.40;;;16.60;88.20;;;;;;15310408;19;20182;-81
2024/04/10 17:52:09;;;;;;;0.77;0.50;;;16.10;87.00;;;;;;15303372;19;20138;-81
2024/04/10 17:57:09;;;;;;;1.95;0.85;;;15.40;88.50;;;;;;15304545;19;20225;-82
2024/04/10 18:02:10;;;;;;;0.73;0.52;;;15.00;90.20;;;;;;15304071;19;20145;-82
2024/04/10 18:07:10;;;;;;;3.53;0.68;;;14.10;90.50;;;;;;15312415;19;20150;-84
2024/04/10 18:12:11;;;;;;;2.03;0.40;;;13.60;91.20;;;;;;15314742;19;20130;-80
2024/04/10 18:17:12;;;;;;;1.88;0.50;;;13.20;93.30;;;;;;15316681;19;20146;-81
2024/04/10 18:22:12;;;;;;;1.13;0.60;;;12.80;93.80;;;;;;15310002;19;20134;-80
2024/04/10 18:27:13;;;;;;;2.03;0.52;;;12.40;95.10;;;;;;15316273;19;20180;-81
2024/04/10 18:32:14;;;;;;;1.02;0.50;;;12.00;93.40;;;;;;15308533;19;20122;-80
2024/04/10 18:37:14;;;;;;;1.63;0.70;;;11.90;93.30;;;;;;15307856;19;20201;-81
2024/04/10 18:42:15;;;;;;;3.08;0.50;;;12.00;94.10;;;;;;15311817;19;20146;-80
2024/04/10 18:47:15;;;;;;;1.75;0.82;;;11.90;95.20;;;;;;15312663;19;20508;-81
2024/04/10 18:52:16;;;;;;;1.30;0.70;;;11.60;95.80;;;;;;15308145;19;20126;-81
2024/04/10 18:57:16;;;;;;;2.00;0.50;;;11.60;96.30;;;;;;15313184;19;20170;-81
2024/04/10 19:02:17;;;;;;;1.73;0.52;;;11.60;97.10;;;;;;15306521;19;20146;-81
2024/04/10 19:07:20;;;;;;;0.98;0.40;;;11.50;97.40;;;;;;15315046;19;20245;-81
2024/04/10 19:12:20;;;;;;;1.35;0.57;;;11.30;98.10;;;;;;15308887;19;20159;-81
2024/04/10 19:17:21;;;;;;;2.53;0.50;;;11.10;98.80;;;;;;15336586;19;20174;-82
2024/04/10 19:22:22;;;;;;;1.50;0.60;;;11.00;99.60;;;;;;15347273;19;20130;-81
2024/04/10 19:27:22;;;;;;;1.37;0.53;;;10.90;99.90;;;;;;15326468;19;20154;-82
2024/04/10 19:32:23;;;;;;;2.17;0.80;;;10.80;99.90;;;;;;15334705;19;20170;-82
2024/04/10 19:37:23;;;;;;;1.50;0.90;;;10.80;99.90;;;;;;15185734;19;20196;-80
2024/04/10 19:42:26;;;;;;;3.83;1.27;;;10.70;99.90;;;;;;15283618;19;20134;-81
2024/04/10 19:47:26;;;;;;;0.67;0.50;;;10.60;99.90;;;;;;15301936;19;20161;-81
2024/04/10 19:52:27;;;;;;;1.47;0.53;;;10.60;99.90;;;;;;15228676;19;20253;-81
2024/04/10 19:57:28;;;;;;;9.07;0.80;;;10.60;99.90;;;;;;15289710;19;20161;-79
2024/04/10 20:02:28;;;;;;;2.43;0.50;;;10.70;99.90;;;;;;15290945;19;20150;-80
2024/04/10 20:07:29;;;;;;;1.77;0.70;;;10.80;99.90;;;;;;15284176;19;20200;-81
2024/04/10 20:12:29;;;;;;;0.97;0.60;;;10.70;99.90;;;;;;15283891;19;20621;-80
2024/04/10 20:17:30;;;;;;;1.73;0.73;;;10.50;99.90;;;;;;15291500;19;20176;-81
2024/04/10 20:22:30;;;;;;;3.47;0.67;;;10.20;99.90;;;;;;15302053;19;20133;-80
2024/04/10 20:27:34;;;;;;;1.50;0.70;;;10.00;99.90;;;;;;15298665;19;20187;-82
2024/04/10 20:32:35;;;;;;;1.83;0.70;;;10.00;99.90;;;;;;15296892;19;20651;-82
2024/04/10 20:37:40;;;;;;;1.67;0.70;;;9.90;99.90;;;;;;15296900;19;20150;-82
2024/04/10 20:42:42;;;;;;;2.30;1.30;;;9.90;99.90;;;;;;15295846;19;20716;-81
2024/04/10 20:47:44;;;;;;;3.13;0.70;;;9.90;99.90;;;;;;15286879;19;20154;-80
2024/04/10 20:52:45;;;;;;;5.70;1.03;;;9.90;99.90;;;;;;15274783;19;20200;-81
2024/04/10 20:57:45;;;;;;;2.10;0.73;;;9.80;99.90;;;;;;15294526;19;20210;-82
2024/04/10 21:02:46;;;;;;;4.13;1.30;;;9.70;99.90;;;;;;15301493;19;20157;-81
2024/04/10 22:11:39;;;;;;;1.00;0.50;;;8.40;99.90;;;;;;15306970;19;20564;-81
2024/04/10 22:27:18;;;;;;;2.93;1.10;;;8.80;99.90;;;;;;15313977;19;20551;-83
2024/04/10 22:32:19;;;;;;;1.80;0.80;;;8.80;99.90;;;;;;15302849;19;20150;-81
2024/04/10 22:37:20;;;;;;;1.97;0.90;;;8.70;99.90;;;;;;15308984;19;20628;-82
2024/04/10 22:42:20;;;;;;;1.17;0.70;;;8.50;99.90;;;;;;15303094;19;20146;-83
2024/04/10 22:47:21;;;;;;;4.43;0.70;;;7.90;99.90;;;;;;15323617;19;20183;-82
2024/04/10 22:52:21;;;;;;;3.00;1.10;;;7.60;99.90;;;;;;15307782;19;20947;-82
2024/04/10 22:57:22;;;;;;;1.63;0.80;;;7.50;99.90;;;;;;15310648;19;20218;-81
2024/04/10 23:02:23;;;;;;;1.80;0.70;;;7.50;99.90;;;;;;15300164;19;20146;-82
2024/04/10 23:07:24;;;;;;;1.63;0.73;;;7.80;99.90;;;;;;15304587;19;20796;-82
2024/04/10 23:12:24;;;;;;;1.33;0.77;;;7.90;99.90;;;;;;15308719;19;20126;-82
2024/04/10 23:17:25;;;;;;;2.33;0.63;;;8.00;99.90;;;;;;15345542;19;20154;-81
2024/04/10 23:22:25;;;;;;;5.13;0.70;;;7.80;99.90;;;;;;15311850;19;20127;-81
2024/04/10 23:27:26;;;;;;;1.83;1.07;;;7.90;99.90;;;;;;15308128;19;20169;-81
2024/04/10 23:32:27;;;;;;;4.13;0.63;;;7.90;99.90;;;;;;15301870;19;20202;-81
2024/04/10 23:37:27;;;;;;;4.00;0.80;;;8.00;99.90;;;;;;15306240;19;20620;-80
2024/04/10 23:42:28;;;;;;;3.27;0.70;;;7.90;99.90;;;;;;15298444;19;20149;-80
2024/04/10 23:47:30;;;;;;;1.77;0.70;;;7.80;99.90;;;;;;15306845;19;20229;-81
2024/04/10 23:52:30;;;;;;;1.00;0.53;;;7.90;99.90;;;;;;15301117;19;20130;-80
2024/04/10 23:57:31;;;;;;;12.53;0.70;;;7.90;99.90;;;;;;15310806;19;20197;-81
